sensor_id;sensor_type;location;lat;lon;timestamp;pressure;altitude;pressure_sealevel;temperature;humidity
62072;BME280;48031;48.542;13.232;2023-02-13T00:02:03;99308.41;;;8.18;63.89
62072;BME280;48031;48.542;13.232;2023-02-13T00:06:06;99314.94;;;8.24;63.63
62072;BME280;48031;48.542;13.232;2023-02-13T00:10:08;99312.19;;;7.88;64.21
62072;BME280;48031;48.542;13.232;2023-02-13T00:14:10;99314.34;;;8.28;63.72
62072;BME280;48031;48.542;13.232;2023-02-13T00:18:12;99319.28;;;8.40;62.50
62072;BME280;48031;48.542;13.232;2023-02-13T00:22:13;99310.97;;;8.26;63.50
62072;BME280;48031;48.542;13.232;2023-02-13T00:26:17;99309.16;;;8.63;62.21
62072;BME280;48031;48.542;13.232;2023-02-13T00:30:20;99303.31;;;8.45;62.09
62072;BME280;48031;48.542;13.232;2023-02-13T00:34:22;99300.78;;;8.58;61.73
62072;BME280;48031;48.542;13.232;2023-02-13T00:38:24;99298.59;;;8.32;62.92
62072;BME280;48031;48.542;13.232;2023-02-13T00:42:26;99298.72;;;8.09;62.66
62072;BME280;48031;48.542;13.232;2023-02-13T00:46:28;99300.78;;;8.58;61.62
62072;BME280;48031;48.542;13.232;2023-02-13T00:50:30;99302.31;;;8.46;62.16
62072;BME280;48031;48.542;13.232;2023-02-13T00:54:31;99307.34;;;7.83;64.42
62072;BME280;48031;48.542;13.232;2023-02-13T00:58:33;99304.84;;;8.32;63.05
62072;BME280;48031;48.542;13.232;2023-02-13T01:02:35;99305.44;;;8.49;61.87
62072;BME280;48031;48.542;13.232;2023-02-13T01:06:37;99300.13;;;8.05;63.49
62072;BME280;48031;48.542;13.232;2023-02-13T01:10:40;99303.06;;;8.40;62.10
62072;BME280;48031;48.542;13.232;2023-02-13T01:14:42;99303.78;;;7.83;64.66
62072;BME280;48031;48.542;13.232;2023-02-13T01:18:44;99305.19;;;7.79;63.80
62072;BME280;48031;48.542;13.232;2023-02-13T01:22:46;99304.03;;;8.03;63.85
62072;BME280;48031;48.542;13.232;2023-02-13T01:26:48;99300.78;;;7.92;64.00
62072;BME280;48031;48.542;13.232;2023-02-13T01:30:54;99311.13;;;8.04;65.64
62072;BME280;48031;48.542;13.232;2023-02-13T01:34:57;99309.00;;;7.70;65.73
62072;BME280;48031;48.542;13.232;2023-02-13T01:38:59;99305.75;;;7.89;64.57
62072;BME280;48031;48.542;13.232;2023-02-13T01:43:01;99308.81;;;7.71;64.56
62072;BME280;48031;48.542;13.232;2023-02-13T01:47:03;99307.91;;;7.79;64.09
62072;BME280;48031;48.542;13.232;2023-02-13T01:51:14;99308.00;;;7.85;65.50
62072;BME280;48031;48.542;13.232;2023-02-13T01:55:20;99305.47;;;7.84;65.24
62072;BME280;48031;48.542;13.232;2023-02-13T01:59:30;99312.91;;;7.82;65.72
62072;BME280;48031;48.542;13.232;2023-02-13T02:03:56;99299.09;;;7.91;66.07
62072;BME280;48031;48.542;13.232;2023-02-13T02:08:07;99296.16;;;8.22;64.87
62072;BME280;48031;48.542;13.232;2023-02-13T02:12:35;99290.88;;;8.14;65.82
62072;BME280;48031;48.542;13.232;2023-02-13T02:16:40;99304.63;;;7.54;66.04
62072;BME280;48031;48.542;13.232;2023-02-13T02:33:32;99286.19;;;7.43;64.90
62072;BME280;48031;48.542;13.232;2023-02-13T02:54:44;99276.56;;;7.26;65.41
62072;BME280;48031;48.542;13.232;2023-02-13T02:59:12;99270.03;;;7.20;65.84
62072;BME280;48031;48.542;13.232;2023-02-13T03:03:35;99269.88;;;7.36;65.70
62072;BME280;48031;48.542;13.232;2023-02-13T03:07:56;99274.81;;;7.18;67.36
62072;BME280;48031;48.542;13.232;2023-02-13T03:11:58;99273.53;;;7.29;69.07
62072;BME280;48031;48.542;13.232;2023-02-13T03:16:21;99281.63;;;7.43;70.04
62072;BME280;48031;48.542;13.232;2023-02-13T03:20:52;99278.97;;;7.06;71.28
62072;BME280;48031;48.542;13.232;2023-02-13T03:25:20;99290.84;;;7.34;70.64
62072;BME280;48031;48.542;13.232;2023-02-13T03:29:47;99292.97;;;7.53;69.92
62072;BME280;48031;48.542;13.232;2023-02-13T03:34:11;99286.09;;;7.51;70.48
62072;BME280;48031;48.542;13.232;2023-02-13T03:38:27;99287.53;;;7.98;71.16
62072;BME280;48031;48.542;13.232;2023-02-13T03:42:52;99285.53;;;8.36;67.47
62072;BME280;48031;48.542;13.232;2023-02-13T03:46:58;99284.16;;;7.45;68.03
62072;BME280;48031;48.542;13.232;2023-02-13T03:51:01;99283.00;;;7.54;69.61
62072;BME280;48031;48.542;13.232;2023-02-13T03:55:16;99276.22;;;7.73;69.45
62072;BME280;48031;48.542;13.232;2023-02-13T03:59:37;99275.75;;;7.40;68.40
62072;BME280;48031;48.542;13.232;2023-02-13T04:07:40;99283.19;;;7.38;69.67
62072;BME280;48031;48.542;13.232;2023-02-13T04:16:08;99278.34;;;7.48;69.44
62072;BME280;48031;48.542;13.232;2023-02-13T04:20:12;99259.13;;;6.61;67.32
62072;BME280;48031;48.542;13.232;2023-02-13T04:24:14;99273.84;;;6.96;67.27
62072;BME280;48031;48.542;13.232;2023-02-13T04:28:17;99270.53;;;7.24;67.13
62072;BME280;48031;48.542;13.232;2023-02-13T04:32:19;99263.50;;;6.85;67.21
62072;BME280;48031;48.542;13.232;2023-02-13T04:36:21;99267.66;;;6.73;66.42
62072;BME280;48031;48.542;13.232;2023-02-13T04:40:23;99281.59;;;7.14;66.02
62072;BME280;48031;48.542;13.232;2023-02-13T04:44:25;99276.44;;;6.90;65.70
62072;BME280;48031;48.542;13.232;2023-02-13T04:48:27;99274.56;;;6.90;64.89
62072;BME280;48031;48.542;13.232;2023-02-13T04:52:30;99272.34;;;6.56;67.22
62072;BME280;48031;48.542;13.232;2023-02-13T04:56:32;99278.50;;;6.42;65.72
62072;BME280;48031;48.542;13.232;2023-02-13T05:00:34;99270.78;;;6.62;65.94
62072;BME280;48031;48.542;13.232;2023-02-13T05:04:36;99272.78;;;6.37;65.22
62072;BME280;48031;48.542;13.232;2023-02-13T05:08:38;99273.78;;;5.91;66.04
62072;BME280;48031;48.542;13.232;2023-02-13T05:12:41;99275.47;;;5.83;67.47
62072;BME280;48031;48.542;13.232;2023-02-13T05:16:43;99271.31;;;6.04;66.52
62072;BME280;48031;48.542;13.232;2023-02-13T05:20:45;99272.78;;;6.14;66.63
62072;BME280;48031;48.542;13.232;2023-02-13T05:25:07;99267.06;;;5.78;66.58
62072;BME280;48031;48.542;13.232;2023-02-13T05:29:10;99270.59;;;5.79;67.11
62072;BME280;48031;48.542;13.232;2023-02-13T05:33:21;99282.63;;;5.60;67.58
62072;BME280;48031;48.542;13.232;2023-02-13T05:37:23;99273.16;;;6.34;67.15
62072;BME280;48031;48.542;13.232;2023-02-13T05:41:25;99281.84;;;6.44;66.69
62072;BME280;48031;48.542;13.232;2023-02-13T05:45:27;99281.13;;;6.28;68.22
62072;BME280;48031;48.542;13.232;2023-02-13T05:49:29;99295.03;;;6.08;68.97
62072;BME280;48031;48.542;13.232;2023-02-13T05:53:31;99286.88;;;5.85;68.79
62072;BME280;48031;48.542;13.232;2023-02-13T05:57:36;99298.41;;;6.10;69.23
62072;BME280;48031;48.542;13.232;2023-02-13T06:01:38;99294.47;;;6.21;69.24
62072;BME280;48031;48.542;13.232;2023-02-13T06:05:40;99300.00;;;5.97;69.32
62072;BME280;48031;48.542;13.232;2023-02-13T06:09:41;99311.50;;;5.91;70.53
62072;BME280;48031;48.542;13.232;2023-02-13T06:13:43;99307.13;;;6.20;69.56
62072;BME280;48031;48.542;13.232;2023-02-13T06:17:45;99316.88;;;6.21;69.46
62072;BME280;48031;48.542;13.232;2023-02-13T06:21:47;99314.03;;;6.23;69.66
62072;BME280;48031;48.542;13.232;2023-02-13T06:25:48;99316.75;;;6.15;70.72
62072;BME280;48031;48.542;13.232;2023-02-13T06:29:50;99320.28;;;6.46;70.79
62072;BME280;48031;48.542;13.232;2023-02-13T06:33:52;99322.16;;;6.15;68.93
62072;BME280;48031;48.542;13.232;2023-02-13T06:37:54;99325.78;;;5.36;68.92
62072;BME280;48031;48.542;13.232;2023-02-13T06:41:55;99325.53;;;6.09;68.00
62072;BME280;48031;48.542;13.232;2023-02-13T06:45:57;99332.44;;;6.42;68.27
62072;BME280;48031;48.542;13.232;2023-02-13T06:49:59;99328.97;;;5.86;67.04
62072;BME280;48031;48.542;13.232;2023-02-13T06:54:01;99338.25;;;6.54;68.03
62072;BME280;48031;48.542;13.232;2023-02-13T06:58:03;99348.44;;;6.44;68.09
62072;BME280;48031;48.542;13.232;2023-02-13T07:02:04;99346.44;;;6.68;66.40
62072;BME280;48031;48.542;13.232;2023-02-13T07:06:06;99347.38;;;6.53;67.02
62072;BME280;48031;48.542;13.232;2023-02-13T07:10:11;99342.63;;;7.23;68.39
62072;BME280;48031;48.542;13.232;2023-02-13T07:14:13;99344.69;;;6.76;67.06
62072;BME280;48031;48.542;13.232;2023-02-13T07:18:15;99345.09;;;7.10;67.84
62072;BME280;48031;48.542;13.232;2023-02-13T07:22:17;99350.78;;;7.15;66.99
62072;BME280;48031;48.542;13.232;2023-02-13T07:26:18;99354.41;;;6.85;65.55
62072;BME280;48031;48.542;13.232;2023-02-13T07:30:20;99360.41;;;7.32;63.48
62072;BME280;48031;48.542;13.232;2023-02-13T07:34:22;99361.00;;;6.82;63.29
62072;BME280;48031;48.542;13.232;2023-02-13T07:38:24;99372.22;;;6.94;62.71
62072;BME280;48031;48.542;13.232;2023-02-13T07:42:26;99370.25;;;7.63;63.06
62072;BME280;48031;48.542;13.232;2023-02-13T07:46:27;99367.84;;;7.68;60.88
62072;BME280;48031;48.542;13.232;2023-02-13T07:50:29;99371.72;;;7.65;62.86
62072;BME280;48031;48.542;13.232;2023-02-13T07:54:32;99371.44;;;7.60;62.58
62072;BME280;48031;48.542;13.232;2023-02-13T07:58:34;99367.75;;;7.90;61.30
62072;BME280;48031;48.542;13.232;2023-02-13T08:02:36;99374.72;;;7.70;60.95
62072;BME280;48031;48.542;13.232;2023-02-13T08:06:39;99378.44;;;7.99;60.66
62072;BME280;48031;48.542;13.232;2023-02-13T08:10:41;99374.81;;;7.62;61.73
62072;BME280;48031;48.542;13.232;2023-02-13T08:15:02;99383.28;;;7.59;62.52
62072;BME280;48031;48.542;13.232;2023-02-13T08:19:04;99387.03;;;7.73;62.04
62072;BME280;48031;48.542;13.232;2023-02-13T08:23:09;99387.75;;;8.25;62.43
62072;BME280;48031;48.542;13.232;2023-02-13T08:27:13;99388.56;;;7.52;63.60
62072;BME280;48031;48.542;13.232;2023-02-13T08:31:15;99389.25;;;7.69;62.71
62072;BME280;48031;48.542;13.232;2023-02-13T08:35:16;99388.13;;;7.64;62.57
62072;BME280;48031;48.542;13.232;2023-02-13T08:39:18;99402.31;;;6.83;63.87
62072;BME280;48031;48.542;13.232;2023-02-13T08:43:20;99393.97;;;6.92;64.21
62072;BME280;48031;48.542;13.232;2023-02-13T08:47:22;99386.72;;;7.53;63.64
62072;BME280;48031;48.542;13.232;2023-02-13T08:51:23;99396.31;;;7.41;62.70
62072;BME280;48031;48.542;13.232;2023-02-13T08:55:26;99400.25;;;7.30;62.36
62072;BME280;48031;48.542;13.232;2023-02-13T08:59:28;99397.56;;;7.82;61.36
62072;BME280;48031;48.542;13.232;2023-02-13T09:03:30;99394.28;;;7.72;60.55
62072;BME280;48031;48.542;13.232;2023-02-13T09:07:32;99397.56;;;7.68;61.23
62072;BME280;48031;48.542;13.232;2023-02-13T09:11:34;99406.75;;;7.59;60.76
62072;BME280;48031;48.542;13.232;2023-02-13T09:15:39;99409.97;;;8.21;59.85
62072;BME280;48031;48.542;13.232;2023-02-13T09:19:41;99412.41;;;8.01;59.71
62072;BME280;48031;48.542;13.232;2023-02-13T09:23:43;99412.88;;;7.52;60.56
62072;BME280;48031;48.542;13.232;2023-02-13T09:27:44;99408.38;;;7.97;59.48
62072;BME280;48031;48.542;13.232;2023-02-13T09:31:46;99403.63;;;8.14;59.66
62072;BME280;48031;48.542;13.232;2023-02-13T09:35:48;99407.63;;;8.03;58.82
62072;BME280;48031;48.542;13.232;2023-02-13T09:39:50;99405.22;;;8.52;57.97
62072;BME280;48031;48.542;13.232;2023-02-13T09:47:59;99407.78;;;8.60;56.90
62072;BME280;48031;48.542;13.232;2023-02-13T09:52:01;99417.44;;;8.84;56.51
62072;BME280;48031;48.542;13.232;2023-02-13T09:56:12;99405.97;;;9.03;56.51
62072;BME280;48031;48.542;13.232;2023-02-13T10:00:20;99416.81;;;9.03;56.59
62072;BME280;48031;48.542;13.232;2023-02-13T10:04:44;99416.53;;;8.98;56.95
62072;BME280;48031;48.542;13.232;2023-02-13T10:17:34;99407.44;;;9.48;55.57
62072;BME280;48031;48.542;13.232;2023-02-13T10:21:40;99414.66;;;8.77;57.43
62072;BME280;48031;48.542;13.232;2023-02-13T10:25:55;99410.81;;;9.78;56.31
62072;BME280;48031;48.542;13.232;2023-02-13T10:30:35;99412.00;;;9.48;55.72
62072;BME280;48031;48.542;13.232;2023-02-13T10:34:35;99405.63;;;9.83;54.87
62072;BME280;48031;48.542;13.232;2023-02-13T10:38:42;99411.69;;;9.57;55.29
62072;BME280;48031;48.542;13.232;2023-02-13T10:42:52;99401.91;;;10.19;53.82
62072;BME280;48031;48.542;13.232;2023-02-13T10:56:00;99394.38;;;10.62;53.34
62072;BME280;48031;48.542;13.232;2023-02-13T11:00:17;99389.88;;;10.00;55.59
62072;BME280;48031;48.542;13.232;2023-02-13T11:04:21;99390.78;;;9.79;56.36
62072;BME280;48031;48.542;13.232;2023-02-13T11:08:35;99390.06;;;9.98;55.12
62072;BME280;48031;48.542;13.232;2023-02-13T11:12:40;99386.50;;;9.91;55.79
62072;BME280;48031;48.542;13.232;2023-02-13T11:20:58;99390.97;;;10.40;55.58
62072;BME280;48031;48.542;13.232;2023-02-13T11:25:17;99395.94;;;10.91;53.04
62072;BME280;48031;48.542;13.232;2023-02-13T11:29:25;99388.75;;;10.63;53.54
62072;BME280;48031;48.542;13.232;2023-02-13T11:33:28;99382.81;;;10.40;54.30
62072;BME280;48031;48.542;13.232;2023-02-13T11:37:30;99382.97;;;9.97;56.10
62072;BME280;48031;48.542;13.232;2023-02-13T11:41:41;99381.78;;;10.07;55.73
62072;BME280;48031;48.542;13.232;2023-02-13T11:45:43;99378.72;;;10.57;54.86
62072;BME280;48031;48.542;13.232;2023-02-13T11:49:46;99385.28;;;10.89;54.24
62072;BME280;48031;48.542;13.232;2023-02-13T11:53:48;99383.50;;;10.55;55.05
62072;BME280;48031;48.542;13.232;2023-02-13T11:57:59;99366.75;;;11.58;53.14
62072;BME280;48031;48.542;13.232;2023-02-13T12:06:20;99387.00;;;11.49;51.94
62072;BME280;48031;48.542;13.232;2023-02-13T12:14:39;99385.06;;;12.16;50.82
62072;BME280;48031;48.542;13.232;2023-02-13T12:18:46;99381.75;;;11.15;53.99
62072;BME280;48031;48.542;13.232;2023-02-13T12:23:15;99374.25;;;11.43;53.22
62072;BME280;48031;48.542;13.232;2023-02-13T12:36:16;99356.25;;;11.82;50.72
62072;BME280;48031;48.542;13.232;2023-02-13T12:45:17;99349.97;;;11.94;50.80
62072;BME280;48031;48.542;13.232;2023-02-13T13:10:38;99338.31;;;12.32;50.85
62072;BME280;48031;48.542;13.232;2023-02-13T13:14:53;99327.75;;;12.48;50.55
62072;BME280;48031;48.542;13.232;2023-02-13T13:19:12;99329.63;;;12.55;49.64
62072;BME280;48031;48.542;13.232;2023-02-13T13:27:35;99326.13;;;12.47;50.40
62072;BME280;48031;48.542;13.232;2023-02-13T13:31:38;99325.66;;;12.06;51.01
62072;BME280;48031;48.542;13.232;2023-02-13T13:35:52;99321.56;;;12.73;49.70
62072;BME280;48031;48.542;13.232;2023-02-13T13:40:06;99334.81;;;12.18;50.93
62072;BME280;48031;48.542;13.232;2023-02-13T13:53:19;99329.31;;;11.41;52.91
62072;BME280;48031;48.542;13.232;2023-02-13T14:14:51;99320.25;;;11.66;52.37
62072;BME280;48031;48.542;13.232;2023-02-13T14:18:53;99316.53;;;11.48;53.51
62072;BME280;48031;48.542;13.232;2023-02-13T14:22:55;99311.91;;;11.61;53.36
62072;BME280;48031;48.542;13.232;2023-02-13T14:26:57;99314.22;;;11.64;52.92
62072;BME280;48031;48.542;13.232;2023-02-13T14:31:09;99326.16;;;10.91;55.09
62072;BME280;48031;48.542;13.232;2023-02-13T14:35:30;99310.88;;;11.62;53.31
62072;BME280;48031;48.542;13.232;2023-02-13T14:39:34;99304.00;;;11.34;53.60
62072;BME280;48031;48.542;13.232;2023-02-13T14:43:48;99307.53;;;11.74;53.00
62072;BME280;48031;48.542;13.232;2023-02-13T14:47:53;99300.63;;;11.51;53.34
62072;BME280;48031;48.542;13.232;2023-02-13T14:52:05;99295.59;;;11.75;53.22
62072;BME280;48031;48.542;13.232;2023-02-13T14:56:12;99305.25;;;11.31;53.88
62072;BME280;48031;48.542;13.232;2023-02-13T15:04:57;99289.56;;;11.46;53.51
62072;BME280;48031;48.542;13.232;2023-02-13T15:09:04;99291.84;;;11.49;54.06
62072;BME280;48031;48.542;13.232;2023-02-13T15:13:21;99295.63;;;11.35;53.98
62072;BME280;48031;48.542;13.232;2023-02-13T15:17:29;99290.19;;;11.35;53.85
62072;BME280;48031;48.542;13.232;2023-02-13T15:21:33;99286.44;;;11.03;53.89
62072;BME280;48031;48.542;13.232;2023-02-13T15:25:37;99284.16;;;11.07;54.55
62072;BME280;48031;48.542;13.232;2023-02-13T15:29:55;99283.72;;;11.10;55.13
62072;BME280;48031;48.542;13.232;2023-02-13T15:33:58;99291.00;;;10.83;55.50
62072;BME280;48031;48.542;13.232;2023-02-13T15:42:25;99284.78;;;11.02;54.23
62072;BME280;48031;48.542;13.232;2023-02-13T15:46:29;99291.47;;;10.87;55.81
62072;BME280;48031;48.542;13.232;2023-02-13T15:50:34;99278.03;;;10.65;56.65
62072;BME280;48031;48.542;13.232;2023-02-13T15:54:47;99288.19;;;9.89;59.57
62072;BME280;48031;48.542;13.232;2023-02-13T15:58:50;99277.81;;;10.47;56.83
62072;BME280;48031;48.542;13.232;2023-02-13T16:02:56;99285.97;;;10.60;56.20
62072;BME280;48031;48.542;13.232;2023-02-13T16:06:59;99278.41;;;10.42;57.31
62072;BME280;48031;48.542;13.232;2023-02-13T16:11:39;99280.94;;;11.56;54.19
62072;BME280;48031;48.542;13.232;2023-02-13T16:15:44;99288.28;;;10.76;55.33
62072;BME280;48031;48.542;13.232;2023-02-13T16:19:56;99289.34;;;10.95;55.55
62072;BME280;48031;48.542;13.232;2023-02-13T16:24:03;99293.50;;;10.11;58.36
62072;BME280;48031;48.542;13.232;2023-02-13T16:32:25;99287.97;;;10.32;56.71
62072;BME280;48031;48.542;13.232;2023-02-13T16:36:28;99290.31;;;9.94;57.77
62072;BME280;48031;48.542;13.232;2023-02-13T16:44:33;99285.50;;;9.89;57.10
62072;BME280;48031;48.542;13.232;2023-02-13T16:48:35;99284.97;;;10.14;56.20
62072;BME280;48031;48.542;13.232;2023-02-13T16:52:36;99286.44;;;9.75;57.42
62072;BME280;48031;48.542;13.232;2023-02-13T16:56:46;99290.03;;;10.17;56.34
62072;BME280;48031;48.542;13.232;2023-02-13T17:00:49;99295.34;;;9.97;56.51
62072;BME280;48031;48.542;13.232;2023-02-13T17:05:15;99288.09;;;10.11;56.69
62072;BME280;48031;48.542;13.232;2023-02-13T17:09:17;99303.44;;;9.56;56.61
62072;BME280;48031;48.542;13.232;2023-02-13T17:13:19;99292.03;;;9.33;57.59
62072;BME280;48031;48.542;13.232;2023-02-13T17:17:22;99289.88;;;9.22;58.16
62072;BME280;48031;48.542;13.232;2023-02-13T17:21:23;99289.91;;;9.00;58.38
62072;BME280;48031;48.542;13.232;2023-02-13T17:25:33;99299.03;;;9.21;58.17
62072;BME280;48031;48.542;13.232;2023-02-13T17:29:35;99300.25;;;8.90;58.00
62072;BME280;48031;48.542;13.232;2023-02-13T17:33:37;99309.88;;;8.99;57.94
62072;BME280;48031;48.542;13.232;2023-02-13T17:37:42;99314.66;;;9.18;58.29
62072;BME280;48031;48.542;13.232;2023-02-13T17:41:44;99315.63;;;8.47;59.88
62072;BME280;48031;48.542;13.232;2023-02-13T17:45:46;99315.06;;;8.73;59.34
62072;BME280;48031;48.542;13.232;2023-02-13T17:49:48;99314.78;;;9.66;57.27
62072;BME280;48031;48.542;13.232;2023-02-13T17:53:51;99315.81;;;9.65;55.70
62072;BME280;48031;48.542;13.232;2023-02-13T17:57:54;99315.97;;;9.01;57.94
62072;BME280;48031;48.542;13.232;2023-02-13T18:01:59;99316.59;;;8.82;58.33
62072;BME280;48031;48.542;13.232;2023-02-13T18:06:00;99314.03;;;8.95;57.51
62072;BME280;48031;48.542;13.232;2023-02-13T18:10:02;99309.75;;;8.86;58.16
62072;BME280;48031;48.542;13.232;2023-02-13T18:14:04;99316.13;;;8.21;59.78
62072;BME280;48031;48.542;13.232;2023-02-13T18:18:06;99316.94;;;8.94;57.86
62072;BME280;48031;48.542;13.232;2023-02-13T18:22:09;99320.84;;;8.49;59.26
62072;BME280;48031;48.542;13.232;2023-02-13T18:26:11;99299.41;;;8.68;58.48
62072;BME280;48031;48.542;13.232;2023-02-13T18:30:15;99306.88;;;8.66;58.49
62072;BME280;48031;48.542;13.232;2023-02-13T18:34:22;99306.09;;;8.72;58.66
62072;BME280;48031;48.542;13.232;2023-02-13T18:38:24;99301.38;;;8.39;58.40
62072;BME280;48031;48.542;13.232;2023-02-13T18:42:26;99308.56;;;8.31;58.41
62072;BME280;48031;48.542;13.232;2023-02-13T18:46:28;99304.41;;;8.00;59.18
62072;BME280;48031;48.542;13.232;2023-02-13T18:50:30;99310.03;;;7.83;59.53
62072;BME280;48031;48.542;13.232;2023-02-13T18:54:32;99311.06;;;7.68;59.43
62072;BME280;48031;48.542;13.232;2023-02-13T18:58:33;99308.81;;;7.86;59.22
62072;BME280;48031;48.542;13.232;2023-02-13T19:02:35;99309.75;;;7.49;60.12
62072;BME280;48031;48.542;13.232;2023-02-13T19:06:38;99311.44;;;7.65;60.47
62072;BME280;48031;48.542;13.232;2023-02-13T19:10:41;99319.56;;;7.79;59.11
62072;BME280;48031;48.542;13.232;2023-02-13T19:14:43;99325.56;;;8.11;58.14
62072;BME280;48031;48.542;13.232;2023-02-13T19:18:48;99327.59;;;8.38;59.00
62072;BME280;48031;48.542;13.232;2023-02-13T19:22:52;99325.00;;;8.15;58.08
62072;BME280;48031;48.542;13.232;2023-02-13T19:26:55;99333.59;;;8.04;58.59
62072;BME280;48031;48.542;13.232;2023-02-13T19:31:06;99327.31;;;8.69;58.25
62072;BME280;48031;48.542;13.232;2023-02-13T19:35:09;99328.38;;;8.17;58.52
62072;BME280;48031;48.542;13.232;2023-02-13T19:39:11;99333.94;;;8.30;57.91
62072;BME280;48031;48.542;13.232;2023-02-13T19:43:12;99322.25;;;8.45;56.40
62072;BME280;48031;48.542;13.232;2023-02-13T19:47:14;99307.97;;;8.51;56.15
62072;BME280;48031;48.542;13.232;2023-02-13T19:51:18;99311.50;;;8.51;56.85
62072;BME280;48031;48.542;13.232;2023-02-13T19:55:20;99315.06;;;8.52;56.46
62072;BME280;48031;48.542;13.232;2023-02-13T19:59:26;99316.34;;;8.56;56.32
62072;BME280;48031;48.542;13.232;2023-02-13T20:03:28;99314.31;;;8.58;55.83
62072;BME280;48031;48.542;13.232;2023-02-13T20:07:29;99315.88;;;8.16;56.73
62072;BME280;48031;48.542;13.232;2023-02-13T20:11:31;99309.78;;;8.14;56.67
62072;BME280;48031;48.542;13.232;2023-02-13T20:15:38;99307.91;;;8.44;56.66
62072;BME280;48031;48.542;13.232;2023-02-13T20:19:40;99303.00;;;8.18;56.91
62072;BME280;48031;48.542;13.232;2023-02-13T20:23:48;99300.38;;;8.61;56.96
62072;BME280;48031;48.542;13.232;2023-02-13T20:27:51;99307.47;;;8.11;56.93
62072;BME280;48031;48.542;13.232;2023-02-13T20:31:53;99303.91;;;8.25;56.83
62072;BME280;48031;48.542;13.232;2023-02-13T20:35:55;99290.09;;;8.20;57.00
62072;BME280;48031;48.542;13.232;2023-02-13T20:40:01;99285.75;;;8.05;58.09
62072;BME280;48031;48.542;13.232;2023-02-13T20:44:10;99292.44;;;8.23;58.36
62072;BME280;48031;48.542;13.232;2023-02-13T20:48:13;99288.28;;;7.91;58.17
62072;BME280;48031;48.542;13.232;2023-02-13T20:52:16;99290.50;;;8.17;57.42
62072;BME280;48031;48.542;13.232;2023-02-13T20:56:20;99298.63;;;8.03;58.41
62072;BME280;48031;48.542;13.232;2023-02-13T21:00:22;99283.50;;;8.08;57.48
62072;BME280;48031;48.542;13.232;2023-02-13T21:04:25;99286.63;;;7.32;59.84
62072;BME280;48031;48.542;13.232;2023-02-13T21:08:29;99281.59;;;7.87;57.63
62072;BME280;48031;48.542;13.232;2023-02-13T21:12:31;99290.19;;;7.91;57.79
62072;BME280;48031;48.542;13.232;2023-02-13T21:16:35;99288.88;;;7.87;58.08
62072;BME280;48031;48.542;13.232;2023-02-13T21:20:37;99280.09;;;8.00;57.22
62072;BME280;48031;48.542;13.232;2023-02-13T21:24:40;99284.09;;;8.04;57.28
62072;BME280;48031;48.542;13.232;2023-02-13T21:28:44;99281.94;;;7.99;57.65
62072;BME280;48031;48.542;13.232;2023-02-13T21:32:47;99272.84;;;7.85;56.76
62072;BME280;48031;48.542;13.232;2023-02-13T21:36:49;99270.25;;;7.63;57.56
62072;BME280;48031;48.542;13.232;2023-02-13T21:40:50;99268.03;;;7.51;57.90
62072;BME280;48031;48.542;13.232;2023-02-13T21:44:52;99259.66;;;7.46;58.06
62072;BME280;48031;48.542;13.232;2023-02-13T21:48:56;99260.44;;;7.91;56.99
62072;BME280;48031;48.542;13.232;2023-02-13T21:52:58;99271.44;;;7.89;56.18
62072;BME280;48031;48.542;13.232;2023-02-13T21:57:00;99261.69;;;7.74;57.51
62072;BME280;48031;48.542;13.232;2023-02-13T22:01:11;99256.88;;;8.26;56.09
62072;BME280;48031;48.542;13.232;2023-02-13T22:05:25;99267.53;;;7.77;56.35
62072;BME280;48031;48.542;13.232;2023-02-13T22:09:27;99253.47;;;7.67;56.92
62072;BME280;48031;48.542;13.232;2023-02-13T22:13:29;99250.03;;;7.73;57.59
62072;BME280;48031;48.542;13.232;2023-02-13T22:17:31;99244.63;;;7.73;57.20
62072;BME280;48031;48.542;13.232;2023-02-13T22:21:36;99238.38;;;7.73;57.46
62072;BME280;48031;48.542;13.232;2023-02-13T22:25:38;99244.72;;;7.65;56.70
62072;BME280;48031;48.542;13.232;2023-02-13T22:29:39;99237.66;;;7.49;57.53
62072;BME280;48031;48.542;13.232;2023-02-13T22:33:41;99251.16;;;7.35;57.63
62072;BME280;48031;48.542;13.232;2023-02-13T22:37:48;99241.00;;;7.22;58.12
62072;BME280;48031;48.542;13.232;2023-02-13T22:41:49;99255.63;;;7.42;57.62
62072;BME280;48031;48.542;13.232;2023-02-13T22:45:51;99260.94;;;7.21;58.20
62072;BME280;48031;48.542;13.232;2023-02-13T22:49:53;99268.19;;;6.68;59.92
62072;BME280;48031;48.542;13.232;2023-02-13T22:53:56;99271.63;;;7.00;60.04
62072;BME280;48031;48.542;13.232;2023-02-13T22:57:58;99286.13;;;6.99;59.70
62072;BME280;48031;48.542;13.232;2023-02-13T23:02:03;99280.31;;;7.39;58.69
62072;BME280;48031;48.542;13.232;2023-02-13T23:06:07;99279.88;;;6.61;60.44
62072;BME280;48031;48.542;13.232;2023-02-13T23:10:10;99274.16;;;7.16;59.20
62072;BME280;48031;48.542;13.232;2023-02-13T23:14:12;99285.84;;;7.08;58.68
62072;BME280;48031;48.542;13.232;2023-02-13T23:18:14;99284.44;;;6.98;59.40
62072;BME280;48031;48.542;13.232;2023-02-13T23:22:18;99281.78;;;6.52;59.91
62072;BME280;48031;48.542;13.232;2023-02-13T23:26:20;99285.97;;;6.78;59.90
62072;BME280;48031;48.542;13.232;2023-02-13T23:30:22;99282.53;;;7.21;58.76
62072;BME280;48031;48.542;13.232;2023-02-13T23:34:25;99291.84;;;6.81;59.35
62072;BME280;48031;48.542;13.232;2023-02-13T23:38:26;99292.09;;;6.72;59.78
62072;BME280;48031;48.542;13.232;2023-02-13T23:42:28;99293.25;;;6.92;58.62
62072;BME280;48031;48.542;13.232;2023-02-13T23:46:30;99290.69;;;6.98;58.48
62072;BME280;48031;48.542;13.232;2023-02-13T23:50:32;99297.25;;;6.81;59.13
62072;BME280;48031;48.542;13.232;2023-02-13T23:54:34;99305.84;;;6.85;58.43
62072;BME280;48031;48.542;13.232;2023-02-13T23:58:36;99283.53;;;6.68;59.49
